Date,TemperatureHighF,TemperatureAvgF,TemperatureLowF,DewpointHighF,DewpointAvgF,DewpointLowF,HumidityHigh,HumidityAvg,HumidityLow,PressureMaxIn,PressureMinIn,WindSpeedMaxMPH,WindSpeedAvgMPH,GustSpeedMaxMPH,PrecipitationSumIn
2013-2-1,7,-4,-13,-9,-21,-28,60,44,26,30.08,29.83,6,3,8,0.00
2013-2-2,14,6,-1,-1,-8,-13,62,52,36,29.95,29.74,3,1,5,0.00
2013-2-3,16,10,3,1,-3,-8,64,56,42,29.86,29.75,6,3,8,0.00
2013-2-4,17,10,1,6,-5,-12,69,51,35,29.85,29.52,4,1,7,0.00
2013-2-5,34,22,8,20,11,-2,79,63,42,29.85,29.42,6,2,10,0.00
2013-2-6,26,16,5,18,8,-3,73,68,62,29.88,29.72,6,2,10,0.00
2013-2-7,28,26,24,20,18,16,81,72,62,30.03,29.77,5,2,8,0.00
2013-2-8,30,21,10,17,9,1,72,59,43,30.16,29.99,7,3,11,0.00
2013-2-9,32,29,23,26,22,15,85,75,69,30.00,29.71,6,4,12,0.00
2013-2-10,33,30,27,30,26,21,89,83,75,29.72,29.07,10,3,14,0.00
2013-2-11,30,25,17,27,16,7,89,69,56,29.81,29.12,7,2,11,0.26
2013-2-12,39,25,14,21,14,5,73,62,45,29.81,29.57,9,3,10,0.02
2013-2-13,47,30,20,29,21,12,86,69,44,29.58,29.35,5,2,7,0.09
2013-2-14,33,26,14,29,14,-6,88,62,25,29.95,29.37,4,0,6,0.04
2013-2-15,24,12,4,-1,-5,-9,56,46,29,30.07,29.94,8,4,11,0.00
2013-2-16,26,10,1,4,-4,-12,62,52,32,30.03,29.88,3,1,6,0.00
2013-2-17,33,21,7,17,8,-5,64,57,46,29.89,29.42,9,5,14,0.00
2013-2-18,33,24,9,27,13,-5,78,64,52,29.58,29.29,10,5,14,0.00
2013-2-19,13,6,1,-5,-12,-17,56,43,31,30.13,29.58,11,7,16,0.00
2013-2-20,23,7,-6,-4,-11,-19,55,44,26,30.23,30.12,4,2,6,0.00
2013-2-21,25,15,1,11,0,-12,63,51,37,30.22,29.88,6,2,10,0.00
2013-2-22,37,24,20,21,16,11,78,69,52,29.89,29.64,4,1,5,0.00
2013-2-23,38,26,17,24,16,10,79,68,51,29.73,29.61,4,1,5,0.01
2013-2-24,42,25,9,22,13,1,75,61,43,29.88,29.73,4,1,5,0.04
2013-2-25,46,29,18,23,17,10,76,61,41,29.88,29.81,4,1,7,0.00
2013-2-26,42,27,15,26,18,8,78,68,53,29.84,29.66,6,2,10,0.00
2013-2-27,43,32,27,25,21,16,72,64,45,29.81,29.66,8,4,11,0.00
2013-2-28,31,28,24,20,17,10,67,61,52,30.00,29.80,5,3,8,0.00